Time;durP1;ratioP1;P1;durP2;ratioP2;P2;SDS_P1;SDS_P2;PMS_P1;PMS_P2;Temp;Humidity;BMP_temperature;BMP_pressure;BME280_temperature;BME280_humidity;BME280_pressure;Samples;Min_cycle;Max_cycle;Signal;HPM_P1;HPM_P2
2022/12/15 00:39:58;;;;;;;27.70;6.63;;;;;;;;;;5026574;28;20142;-84
2022/12/15 00:42:27;;;;;;;15.25;8.95;;;;;;;;;;5025726;28;20088;-84
2022/12/15 00:44:53;;;;;;;21.17;8.75;;;;;;;;;;5027565;28;20102;-84
2022/12/15 00:47:18;;;;;;;22.25;9.80;;;;;;;;;;5021991;28;20430;-84
2022/12/15 01:22:37;;;;;;;23.70;7.57;;;;;;;;;;5006633;28;20088;-83
2022/12/15 01:25:05;;;;;;;28.45;10.02;;;;;;;;;;5005516;28;20030;-84
2022/12/15 01:27:30;;;;;;;30.63;9.23;;;;;;;;;;5001710;28;20035;-83
2022/12/15 01:29:55;;;;;;;23.08;9.93;;;;;;;;;;4987737;28;20081;-84
2022/12/15 01:32:21;;;;;;;18.42;8.23;;;;;;;;;;4984007;28;20034;-84
2022/12/15 01:34:46;;;;;;;28.13;11.35;;;;;;;;;;4989836;28;20038;-83
2022/12/15 01:37:11;;;;;;;32.17;10.40;;;;;;;;;;4994954;28;20084;-83
2022/12/15 01:42:20;;;;;;;29.23;10.52;;;;;;;;;;5023966;28;20071;-83
2022/12/15 01:44:49;;;;;;;32.15;11.13;;;;;;;;;;5007330;28;20415;-83
2022/12/15 01:47:15;;;;;;;22.90;11.15;;;;;;;;;;5016513;28;20414;-83
2022/12/15 01:49:42;;;;;;;24.85;10.13;;;;;;;;;;5037209;28;20691;-83
2022/12/15 01:52:09;;;;;;;26.60;8.68;;;;;;;;;;5024644;28;20087;-83
2022/12/15 01:54:39;;;;;;;23.60;11.18;;;;;;;;;;5041374;28;20057;-83
2022/12/15 01:57:10;;;;;;;26.92;9.52;;;;;;;;;;5025919;28;20079;-83
2022/12/15 01:59:42;;;;;;;18.48;8.02;;;;;;;;;;5041494;28;20053;-83
2022/12/15 02:02:09;;;;;;;24.60;10.60;;;;;;;;;;5023988;28;20511;-83
2022/12/15 02:04:36;;;;;;;23.63;11.65;;;;;;;;;;5040100;28;20037;-84
2022/12/15 02:07:02;;;;;;;26.58;12.60;;;;;;;;;;5041283;28;20034;-83
2022/12/15 02:09:28;;;;;;;22.92;9.32;;;;;;;;;;5017320;28;20202;-84
2022/12/15 02:11:56;;;;;;;26.17;11.07;;;;;;;;;;5026014;28;20026;-83
2022/12/15 02:14:36;;;;;;;17.08;9.00;;;;;;;;;;5006103;28;20057;-83
2022/12/15 02:17:46;;;;;;;28.00;12.98;;;;;;;;;;4999823;28;20034;-83
2022/12/15 02:20:14;;;;;;;16.85;6.57;;;;;;;;;;4999736;28;20420;-83
2022/12/15 02:23:00;;;;;;;17.33;8.77;;;;;;;;;;5018411;28;20041;-83
2022/12/15 02:25:53;;;;;;;14.38;5.45;;;;;;;;;;4994095;28;20047;-83
2022/12/15 02:28:33;;;;;;;16.38;6.72;;;;;;;;;;5016622;28;20046;-84
2022/12/15 02:34:08;;;;;;;8.32;4.68;;;;;;;;;;5025057;28;20172;-83
2022/12/15 02:36:43;;;;;;;18.75;8.15;;;;;;;;;;5018272;28;20037;-84
2022/12/15 02:39:11;;;;;;;16.40;6.60;;;;;;;;;;5023093;28;20488;-83
2022/12/15 02:41:42;;;;;;;9.82;5.55;;;;;;;;;;5015250;28;20087;-83
2022/12/15 02:44:25;;;;;;;15.75;8.93;;;;;;;;;;5010070;28;20045;-84
2022/12/15 02:47:12;;;;;;;20.50;8.85;;;;;;;;;;5015839;28;20045;-83
2022/12/15 02:50:02;;;;;;;11.20;5.07;;;;;;;;;;5023237;28;20037;-83
2022/12/15 02:52:52;;;;;;;23.80;7.95;;;;;;;;;;5044337;28;20049;-83
2022/12/15 02:55:36;;;;;;;21.27;7.20;;;;;;;;;;5043604;28;20040;-83
2022/12/15 02:58:04;;;;;;;;;;;;;;;;;;5024546;28;20062;-83
2022/12/15 03:00:35;;;;;;;10.20;5.45;;;;;;;;;;5005965;28;20147;-83
2022/12/15 03:03:01;;;;;;;15.40;6.85;;;;;;;;;;4986508;28;20970;-84
2022/12/15 03:05:27;;;;;;;21.02;8.32;;;;;;;;;;5008762;28;20046;-83
2022/12/15 03:07:53;;;;;;;9.73;6.18;;;;;;;;;;5007973;28;20034;-83
2022/12/15 03:10:22;;;;;;;15.05;7.82;;;;;;;;;;5015936;28;20045;-83
2022/12/15 03:12:49;;;;;;;28.00;7.20;;;;;;;;;;5018160;28;20038;-83
2022/12/15 03:15:15;;;;;;;16.65;7.03;;;;;;;;;;5007345;28;20423;-83
2022/12/15 03:17:40;;;;;;;22.50;8.50;;;;;;;;;;5007962;28;20562;-83
2022/12/15 03:20:06;;;;;;;9.63;7.25;;;;;;;;;;5006915;28;20133;-83
2022/12/15 03:22:31;;;;;;;15.55;9.27;;;;;;;;;;5007356;28;20038;-83
2022/12/15 03:24:57;;;;;;;14.48;8.18;;;;;;;;;;5007808;28;20038;-83
2022/12/15 03:27:22;;;;;;;15.60;7.03;;;;;;;;;;5007543;28;20148;-83
2022/12/15 03:29:47;;;;;;;21.35;7.95;;;;;;;;;;5024139;28;20413;-83
2022/12/15 03:32:13;;;;;;;19.27;7.07;;;;;;;;;;5026181;28;20568;-83
2022/12/15 03:34:38;;;;;;;17.13;8.60;;;;;;;;;;5028215;28;20037;-83
2022/12/15 03:37:03;;;;;;;17.85;8.57;;;;;;;;;;5028540;28;20116;-83
2022/12/15 03:39:29;;;;;;;22.52;9.95;;;;;;;;;;5042930;28;20418;-83
2022/12/15 03:41:54;;;;;;;10.95;7.05;;;;;;;;;;5028113;28;20384;-83
2022/12/15 03:44:19;;;;;;;18.98;6.22;;;;;;;;;;5024676;28;20080;-83
2022/12/15 03:46:45;;;;;;;20.23;9.32;;;;;;;;;;5025009;28;20718;-83
2022/12/15 03:49:10;;;;;;;15.30;7.25;;;;;;;;;;5027527;28;20029;-83
2022/12/15 03:51:35;;;;;;;7.75;5.72;;;;;;;;;;5027919;28;20038;-83
2022/12/15 03:54:01;;;;;;;13.52;7.68;;;;;;;;;;5025970;28;20029;-83
2022/12/15 03:56:26;;;;;;;15.48;7.93;;;;;;;;;;5012034;28;20068;-83
2022/12/15 03:58:51;;;;;;;31.65;8.90;;;;;;;;;;5006972;28;20145;-83
2022/12/15 04:01:29;;;;;;;15.25;6.80;;;;;;;;;;5007188;28;20037;-83
2022/12/15 04:03:55;;;;;;;20.98;8.35;;;;;;;;;;5021900;28;20034;-83
2022/12/15 04:06:21;;;;;;;9.93;6.50;;;;;;;;;;5027794;28;20112;-83
2022/12/15 04:08:46;;;;;;;10.75;6.88;;;;;;;;;;5043953;28;20018;-83
2022/12/15 04:11:11;;;;;;;15.50;7.47;;;;;;;;;;5026660;28;20044;-82
2022/12/15 04:13:37;;;;;;;12.85;8.25;;;;;;;;;;5027610;28;20054;-83
2022/12/15 04:16:03;;;;;;;25.10;7.40;;;;;;;;;;5027118;28;20589;-83
2022/12/15 04:18:28;;;;;;;20.67;7.65;;;;;;;;;;5027259;28;20087;-83
2022/12/15 04:20:54;;;;;;;14.95;6.53;;;;;;;;;;5026565;28;20156;-83
2022/12/15 04:23:19;;;;;;;13.68;5.78;;;;;;;;;;5006650;28;20486;-84
2022/12/15 05:31:53;;;;;;;24.13;8.35;;;;;;;;;;5005766;28;20064;-83
2022/12/15 05:34:27;;;;;;;16.83;8.18;;;;;;;;;;5005519;28;20026;-83
2022/12/15 05:36:54;;;;;;;13.65;8.45;;;;;;;;;;4993913;28;20519;-82
2022/12/15 05:39:20;;;;;;;21.08;9.60;;;;;;;;;;5025629;28;20092;-83
2022/12/15 05:41:46;;;;;;;23.42;9.15;;;;;;;;;;5006934;28;20049;-83
2022/12/15 05:44:12;;;;;;;13.30;6.85;;;;;;;;;;5004983;28;20076;-83
2022/12/15 05:46:37;;;;;;;20.80;10.70;;;;;;;;;;5010222;28;20053;-83
2022/12/15 05:49:07;;;;;;;21.45;7.10;;;;;;;;;;5031352;28;20040;-83
2022/12/15 05:51:32;;;;;;;17.80;8.38;;;;;;;;;;5026071;28;20615;-83
2022/12/15 05:53:58;;;;;;;13.00;7.63;;;;;;;;;;5023773;28;20029;-83
2022/12/15 05:56:24;;;;;;;19.17;8.63;;;;;;;;;;5041144;28;20061;-83
2022/12/15 05:58:50;;;;;;;12.57;9.02;;;;;;;;;;5024208;28;20153;-83
2022/12/15 06:01:17;;;;;;;18.42;8.25;;;;;;;;;;5025901;28;20057;-83
2022/12/15 06:03:43;;;;;;;15.90;9.70;;;;;;;;;;5024996;28;20033;-83
2022/12/15 06:06:10;;;;;;;16.80;8.30;;;;;;;;;;5041562;28;20087;-83
2022/12/15 06:08:38;;;;;;;19.08;8.57;;;;;;;;;;5035308;28;20798;-83
2022/12/15 06:11:03;;;;;;;15.35;8.45;;;;;;;;;;5019186;28;20064;-83
2022/12/15 06:13:31;;;;;;;21.67;9.68;;;;;;;;;;5004653;28;20053;-83
2022/12/15 06:16:02;;;;;;;23.95;9.65;;;;;;;;;;5004945;28;20072;-82
2022/12/15 06:18:30;;;;;;;27.15;10.35;;;;;;;;;;5023156;28;20124;-83
2022/12/15 06:21:00;;;;;;;27.67;11.25;;;;;;;;;;5030218;28;20558;-84
2022/12/15 06:23:27;;;;;;;20.75;11.15;;;;;;;;;;5029891;28;20030;-83
2022/12/15 06:25:53;;;;;;;39.33;12.35;;;;;;;;;;5018306;28;20036;-83
2022/12/15 06:28:22;;;;;;;21.85;10.23;;;;;;;;;;5008386;28;20026;-82
2022/12/15 06:30:49;;;;;;;26.70;8.60;;;;;;;;;;5008309;28;20455;-83
2022/12/15 06:33:15;;;;;;;18.45;9.15;;;;;;;;;;5009653;28;20025;-83
2022/12/15 06:35:40;;;;;;;43.25;10.18;;;;;;;;;;5030038;28;20104;-83
2022/12/15 06:38:05;;;;;;;29.38;12.60;;;;;;;;;;5028439;28;20057;-83
2022/12/15 06:40:31;;;;;;;34.30;10.20;;;;;;;;;;5029539;28;20470;-83
2022/12/15 06:42:56;;;;;;;26.77;11.73;;;;;;;;;;5029117;28;20450;-83
2022/12/15 06:45:21;;;;;;;19.17;9.43;;;;;;;;;;5027486;28;20515;-83
2022/12/15 06:47:47;;;;;;;22.55;10.65;;;;;;;;;;5029548;28;20060;-83
2022/12/15 06:50:13;;;;;;;27.13;10.73;;;;;;;;;;5043888;28;20057;-82
2022/12/15 06:52:38;;;;;;;27.33;11.15;;;;;;;;;;5029043;28;20068;-83
2022/12/15 06:55:04;;;;;;;26.45;11.45;;;;;;;;;;5028110;28;20026;-82
2022/12/15 06:57:29;;;;;;;17.60;9.80;;;;;;;;;;5019627;28;20684;-82
2022/12/15 06:59:54;;;;;;;24.70;11.48;;;;;;;;;;5006624;28;20036;-82
2022/12/15 07:02:20;;;;;;;24.38;10.15;;;;;;;;;;5025518;28;20068;-83
2022/12/15 07:04:45;;;;;;;22.45;9.52;;;;;;;;;;5026142;28;20034;-83
2022/12/15 07:07:11;;;;;;;15.43;9.65;;;;;;;;;;5022361;28;20042;-83
2022/12/15 07:09:36;;;;;;;18.45;8.85;;;;;;;;;;5043314;28;20670;-83
2022/12/15 07:12:02;;;;;;;10.40;6.75;;;;;;;;;;5039657;28;20053;-83
2022/12/15 07:14:27;;;;;;;21.88;9.95;;;;;;;;;;5009623;28;20057;-83
2022/12/15 07:16:53;;;;;;;35.25;9.05;;;;;;;;;;5013746;28;20629;-82
2022/12/15 07:19:18;;;;;;;18.10;9.48;;;;;;;;;;5011982;28;20042;-82
2022/12/15 07:21:44;;;;;;;21.55;9.18;;;;;;;;;;5039246;28;20522;-82
2022/12/15 07:24:12;;;;;;;28.73;10.32;;;;;;;;;;5017843;28;20022;-82
2022/12/15 07:26:38;;;;;;;27.52;8.02;;;;;;;;;;5024032;28;20021;-82
2022/12/15 07:29:04;;;;;;;14.45;8.75;;;;;;;;;;5025424;28;20025;-82
2022/12/15 07:31:30;;;;;;;19.52;8.85;;;;;;;;;;5027821;28;20414;-82
2022/12/15 07:33:57;;;;;;;17.65;9.30;;;;;;;;;;5023939;28;20037;-83
2022/12/15 07:36:22;;;;;;;14.30;8.27;;;;;;;;;;5007763;28;20101;-82
2022/12/15 07:38:47;;;;;;;16.00;7.50;;;;;;;;;;5008842;28;20026;-82
2022/12/15 07:41:13;;;;;;;31.00;9.40;;;;;;;;;;5004942;28;20092;-83
2022/12/15 07:43:38;;;;;;;21.30;10.57;;;;;;;;;;5006570;28;20034;-83
2022/12/15 07:46:04;;;;;;;27.40;10.98;;;;;;;;;;5007838;28;20057;-82
2022/12/15 07:48:29;;;;;;;30.25;10.60;;;;;;;;;;5014560;28;20064;-82
2022/12/15 07:50:58;;;;;;;30.17;9.85;;;;;;;;;;5015352;28;20018;-82
2022/12/15 07:53:26;;;;;;;17.77;9.68;;;;;;;;;;5012604;28;20025;-82
2022/12/15 07:55:57;;;;;;;23.58;11.82;;;;;;;;;;5010045;28;20129;-82
2022/12/15 07:58:23;;;;;;;23.00;10.40;;;;;;;;;;5018795;28;20049;-82
2022/12/15 08:00:48;;;;;;;30.73;12.38;;;;;;;;;;5019030;28;20033;-84
2022/12/15 08:03:13;;;;;;;20.33;11.48;;;;;;;;;;5028233;28;20030;-83
2022/12/15 08:05:39;;;;;;;21.83;10.07;;;;;;;;;;5023150;28;20542;-80
2022/12/15 08:08:04;;;;;;;43.10;16.98;;;;;;;;;;5027415;28;20033;-83
2022/12/15 08:10:29;;;;;;;54.72;20.05;;;;;;;;;;5013998;28;20118;-83
2022/12/15 08:12:55;;;;;;;53.47;20.25;;;;;;;;;;5011890;28;20044;-83
2022/12/15 08:15:20;;;;;;;40.22;16.67;;;;;;;;;;5008446;28;20049;-83
2022/12/15 08:17:46;;;;;;;28.40;11.63;;;;;;;;;;5005957;28;20072;-83
2022/12/15 08:20:11;;;;;;;28.80;12.20;;;;;;;;;;5009621;28;20120;-84
2022/12/15 08:22:36;;;;;;;29.23;11.45;;;;;;;;;;5013257;28;20038;-84
2022/12/15 08:25:02;;;;;;;23.85;8.80;;;;;;;;;;5018611;28;20026;-84
2022/12/15 08:27:28;;;;;;;34.88;10.73;;;;;;;;;;5006971;28;20034;-84
2022/12/15 08:29:53;;;;;;;30.92;9.68;;;;;;;;;;5025819;28;20102;-83
2022/12/15 08:32:19;;;;;;;30.55;9.13;;;;;;;;;;5025041;28;20418;-84
2022/12/15 08:34:46;;;;;;;31.98;9.18;;;;;;;;;;5021429;28;20396;-83
2022/12/15 08:37:12;;;;;;;20.15;8.73;;;;;;;;;;5015336;28;20042;-80
2022/12/15 08:39:37;;;;;;;20.13;10.55;;;;;;;;;;5005678;28;20033;-79
2022/12/15 08:42:03;;;;;;;30.38;10.98;;;;;;;;;;5005052;28;20041;-79
2022/12/15 08:44:28;;;;;;;26.00;11.27;;;;;;;;;;5005284;28;20056;-79
2022/12/15 08:46:53;;;;;;;37.90;9.32;;;;;;;;;;5014715;28;20037;-79
2022/12/15 08:49:19;;;;;;;20.73;10.90;;;;;;;;;;5020376;28;20150;-79
2022/12/15 08:51:44;;;;;;;31.52;13.40;;;;;;;;;;5012230;28;20037;-79
2022/12/15 08:54:10;;;;;;;32.72;11.43;;;;;;;;;;5022676;28;20040;-79
2022/12/15 08:56:35;;;;;;;24.13;11.93;;;;;;;;;;5030236;28;20032;-79
2022/12/15 08:59:01;;;;;;;33.95;14.52;;;;;;;;;;5015903;28;20091;-79
2022/12/15 09:01:28;;;;;;;35.70;13.60;;;;;;;;;;5011289;28;20478;-79
2022/12/15 09:03:55;;;;;;;21.48;10.43;;;;;;;;;;5012388;28;20052;-79
2022/12/15 09:06:25;;;;;;;49.10;11.65;;;;;;;;;;5008123;28;20040;-83
2022/12/15 09:09:00;;;;;;;25.48;11.35;;;;;;;;;;5025182;28;20391;-82
2022/12/15 09:11:26;;;;;;;27.08;10.32;;;;;;;;;;5025561;28;20038;-79
2022/12/15 09:13:52;;;;;;;29.90;10.32;;;;;;;;;;5023124;28;20045;-79
2022/12/15 09:16:18;;;;;;;19.40;10.13;;;;;;;;;;5011827;28;20200;-79
2022/12/15 09:18:48;;;;;;;34.97;11.52;;;;;;;;;;4999294;28;20061;-79
2022/12/15 09:21:14;;;;;;;33.17;12.32;;;;;;;;;;4985543;28;20030;-79
2022/12/15 09:23:40;;;;;;;45.92;13.27;;;;;;;;;;4988003;28;20022;-79
2022/12/15 09:26:14;;;;;;;31.67;11.48;;;;;;;;;;5021481;28;20137;-79
2022/12/15 09:28:40;;;;;;;33.60;13.82;;;;;;;;;;5024650;28;20037;-80
2022/12/15 09:31:10;;;;;;;27.40;13.70;;;;;;;;;;5020999;28;20049;-79
2022/12/15 09:33:36;;;;;;;20.95;10.35;;;;;;;;;;5010427;28;20048;-79
2022/12/15 09:36:03;;;;;;;22.77;11.68;;;;;;;;;;5017842;28;20117;-79
2022/12/15 09:38:28;;;;;;;30.33;11.88;;;;;;;;;;5022002;28;20506;-78
2022/12/15 09:40:53;;;;;;;40.15;16.05;;;;;;;;;;5021261;28;20100;-79
2022/12/15 09:43:25;;;;;;;34.88;13.90;;;;;;;;;;5015423;28;20565;-79
2022/12/15 09:46:07;;;;;;;27.13;13.32;;;;;;;;;;5023541;28;20116;-79
2022/12/15 09:48:39;;;;;;;34.85;14.55;;;;;;;;;;5024374;28;20056;-80
2022/12/15 09:51:08;;;;;;;44.07;15.77;;;;;;;;;;5041815;28;20021;-80
2022/12/15 09:53:34;;;;;;;46.75;19.42;;;;;;;;;;5013110;28;20034;-80
2022/12/15 09:56:06;;;;;;;38.97;14.20;;;;;;;;;;5005444;28;20038;-80
2022/12/15 09:58:57;;;;;;;51.73;16.27;;;;;;;;;;5004002;28;20054;-78
2022/12/15 10:01:44;;;;;;;29.10;14.55;;;;;;;;;;5004463;28;20100;-80
2022/12/15 10:04:43;;;;;;;33.00;15.80;;;;;;;;;;5003893;28;20045;-82
2022/12/15 10:07:20;;;;;;;35.88;13.45;;;;;;;;;;5004988;28;20034;-80
2022/12/15 10:09:45;;;;;;;27.65;13.90;;;;;;;;;;5005447;28;20045;-80
2022/12/15 10:12:20;;;;;;;36.15;13.75;;;;;;;;;;5004888;28;20034;-80
2022/12/15 10:15:03;;;;;;;35.17;14.07;;;;;;;;;;5004228;28;20100;-80
2022/12/15 10:17:47;;;;;;;41.20;20.30;;;;;;;;;;5004046;28;20049;-80
2022/12/15 10:20:19;;;;;;;39.47;14.93;;;;;;;;;;5006700;28;20034;-80
2022/12/15 10:22:45;;;;;;;36.95;16.67;;;;;;;;;;5005630;28;20043;-80
2022/12/15 10:25:17;;;;;;;29.00;14.32;;;;;;;;;;4997199;28;20072;-80
2022/12/15 10:28:06;;;;;;;50.90;14.83;;;;;;;;;;5003968;28;20032;-80
2022/12/15 10:30:32;;;;;;;46.30;16.00;;;;;;;;;;5003825;28;20054;-80
2022/12/15 10:33:26;;;;;;;28.17;14.23;;;;;;;;;;5018487;28;20164;-80
2022/12/15 10:35:54;;;;;;;41.35;16.98;;;;;;;;;;5023729;28;20049;-80
2022/12/15 10:38:32;;;;;;;41.40;18.77;;;;;;;;;;5024484;28;20172;-80
2022/12/15 10:41:01;;;;;;;25.88;13.55;;;;;;;;;;5021076;28;20034;-80
2022/12/15 10:43:38;;;;;;;29.90;15.80;;;;;;;;;;5025483;28;20036;-80
2022/12/15 10:46:09;;;;;;;42.55;17.63;;;;;;;;;;5020819;28;20053;-80
2022/12/15 10:48:35;;;;;;;34.55;14.80;;;;;;;;;;5031873;28;20045;-79
2022/12/15 10:51:07;;;;;;;35.72;16.50;;;;;;;;;;5006873;28;20025;-80
2022/12/15 10:53:40;;;;;;;36.87;17.23;;;;;;;;;;5004510;28;20038;-79
2022/12/15 10:56:07;;;;;;;31.27;14.13;;;;;;;;;;5020471;28;20034;-80
2022/12/15 10:58:45;;;;;;;33.70;14.13;;;;;;;;;;5001789;28;20118;-79
2022/12/15 11:01:17;;;;;;;35.85;16.08;;;;;;;;;;4999527;28;20069;-79
2022/12/15 11:03:43;;;;;;;36.13;14.68;;;;;;;;;;5018396;28;20514;-79
2022/12/15 11:06:21;;;;;;;38.85;17.98;;;;;;;;;;5017354;28;20033;-79
2022/12/15 11:08:47;;;;;;;36.53;18.17;;;;;;;;;;5013800;28;20010;-80
2022/12/15 11:14:22;;;;;;;35.65;17.35;;;;;;;;;;5018953;28;20521;-80
2022/12/15 11:16:50;;;;;;;44.30;18.40;;;;;;;;;;5003022;28;20178;-80
2022/12/15 11:19:32;;;;;;;45.63;18.98;;;;;;;;;;4987379;28;20049;-79
2022/12/15 11:22:11;;;;;;;39.95;17.10;;;;;;;;;;5004357;28;20056;-80
2022/12/15 11:24:49;;;;;;;46.28;18.20;;;;;;;;;;5021067;28;20541;-80
2022/12/15 11:27:21;;;;;;;51.53;21.20;;;;;;;;;;5024952;28;20028;-80
2022/12/15 11:30:11;;;;;;;40.45;19.35;;;;;;;;;;5026123;28;20022;-80
2022/12/15 11:32:41;;;;;;;38.45;18.10;;;;;;;;;;5026206;28;20636;-80
2022/12/15 11:35:22;;;;;;;42.05;18.30;;;;;;;;;;5027018;28;20782;-80
2022/12/15 11:38:01;;;;;;;39.28;18.08;;;;;;;;;;5022693;28;20148;-80
2022/12/15 11:40:39;;;;;;;43.53;18.75;;;;;;;;;;5013661;28;20426;-80
2022/12/15 11:43:26;;;;;;;29.35;14.90;;;;;;;;;;5005062;28;20057;-80
2022/12/15 11:46:16;;;;;;;36.42;17.67;;;;;;;;;;5005730;28;20419;-80
2022/12/15 11:49:24;;;;;;;29.63;12.20;;;;;;;;;;5014277;28;20033;-80
2022/12/15 11:51:53;;;;;;;34.10;15.30;;;;;;;;;;5019360;28;20025;-79
2022/12/15 11:54:26;;;;;;;40.55;17.63;;;;;;;;;;5023893;28;20017;-80
2022/12/15 11:57:04;;;;;;;;;;;;;;;;;;5043297;28;20115;-79
2022/12/15 11:59:48;;;;;;;34.50;14.63;;;;;;;;;;5021322;28;19996;-81
2022/12/15 12:02:42;;;;;;;41.95;16.48;;;;;;;;;;5032904;28;20041;-80
2022/12/15 12:05:37;;;;;;;39.03;16.60;;;;;;;;;;5026329;28;20040;-80
2022/12/15 12:08:30;;;;;;;40.67;15.88;;;;;;;;;;5037355;28;20034;-80
2022/12/15 12:11:11;;;;;;;40.33;17.55;;;;;;;;;;5043001;28;20033;-80
2022/12/15 12:13:58;;;;;;;32.88;15.35;;;;;;;;;;5027733;28;21079;-80
2022/12/15 12:16:28;;;;;;;40.78;15.50;;;;;;;;;;5029779;28;20536;-80
2022/12/15 12:18:53;;;;;;;38.28;15.27;;;;;;;;;;5042566;28;20037;-80
2022/12/15 12:21:24;;;;;;;31.35;15.88;;;;;;;;;;5020373;28;20110;-80
2022/12/15 12:24:03;;;;;;;31.92;15.23;;;;;;;;;;5025944;28;20022;-80
2022/12/15 12:26:39;;;;;;;32.00;15.40;;;;;;;;;;5027018;28;20041;-82
2022/12/15 12:29:40;;;;;;;34.08;16.00;;;;;;;;;;5026565;28;20080;-81
2022/12/15 12:32:14;;;;;;;36.50;15.82;;;;;;;;;;5017205;28;20545;-81
2022/12/15 12:34:54;;;;;;;37.80;15.20;;;;;;;;;;5027517;28;20038;-80
2022/12/15 12:37:38;;;;;;;55.47;17.52;;;;;;;;;;5025418;28;20029;-81
2022/12/15 12:40:15;;;;;;;32.20;16.33;;;;;;;;;;5041489;28;20025;-81
2022/12/15 12:42:48;;;;;;;50.90;19.73;;;;;;;;;;5035383;28;20447;-83
2022/12/15 12:45:14;;;;;;;55.17;21.02;;;;;;;;;;5021366;28;20514;-82
2022/12/15 12:47:45;;;;;;;59.60;21.27;;;;;;;;;;5026964;28;20048;-82
2022/12/15 12:50:18;;;;;;;59.95;18.73;;;;;;;;;;5021143;28;20092;-82
2022/12/15 12:52:51;;;;;;;39.28;16.92;;;;;;;;;;5007676;28;20060;-82
2022/12/15 12:55:27;;;;;;;48.17;19.80;;;;;;;;;;5007534;28;20030;-83
2022/12/15 12:57:53;;;;;;;38.15;15.52;;;;;;;;;;5006117;28;20451;-82
2022/12/15 13:00:31;;;;;;;44.47;18.50;;;;;;;;;;5021425;28;20026;-82
2022/12/15 13:02:56;;;;;;;41.92;17.45;;;;;;;;;;5024937;28;20037;-82
2022/12/15 13:05:30;;;;;;;52.08;17.98;;;;;;;;;;5025641;28;20111;-82
2022/12/15 13:08:04;;;;;;;38.90;17.40;;;;;;;;;;5021131;28;20097;-82
2022/12/15 13:10:32;;;;;;;38.28;16.90;;;;;;;;;;5007625;28;20048;-82
2022/12/15 13:13:14;;;;;;;43.80;16.58;;;;;;;;;;5006584;28;20076;-83
2022/12/15 13:15:43;;;;;;;51.88;20.58;;;;;;;;;;5006783;28;20516;-82
2022/12/15 13:18:16;;;;;;;50.83;18.83;;;;;;;;;;5007125;28;20651;-82
2022/12/15 13:20:45;;;;;;;44.10;19.50;;;;;;;;;;5002029;28;20042;-82
2022/12/15 13:23:20;;;;;;;39.72;15.85;;;;;;;;;;4999620;28;20042;-83
2022/12/15 13:25:51;;;;;;;41.00;17.20;;;;;;;;;;5004828;28;20038;-83
2022/12/15 13:28:26;;;;;;;31.50;15.23;;;;;;;;;;4997554;28;20508;-85
2022/12/15 13:31:15;;;;;;;40.15;17.48;;;;;;;;;;4987457;28;20128;-82
2022/12/15 13:33:54;;;;;;;42.22;15.38;;;;;;;;;;5006525;28;20121;-82
2022/12/15 13:36:35;;;;;;;37.53;14.35;;;;;;;;;;5006427;28;20033;-82
2022/12/15 13:39:11;;;;;;;38.72;13.98;;;;;;;;;;5006576;28;20038;-82
2022/12/15 13:41:40;;;;;;;26.75;12.32;;;;;;;;;;5001444;28;20034;-83
2022/12/15 13:44:16;;;;;;;23.50;8.73;;;;;;;;;;5012999;28;20033;-83
2022/12/15 13:46:45;;;;;;;21.17;9.13;;;;;;;;;;5008570;28;20060;-83
2022/12/15 13:49:24;;;;;;;18.02;8.50;;;;;;;;;;5014770;28;20037;-76
2022/12/15 13:51:49;;;;;;;26.58;10.27;;;;;;;;;;5017524;28;20036;-82
2022/12/15 13:54:22;;;;;;;24.60;11.48;;;;;;;;;;5005187;28;20029;-82
2022/12/15 13:57:08;;;;;;;24.10;11.52;;;;;;;;;;5024120;28;20418;-81
2022/12/15 13:59:47;;;;;;;27.73;12.00;;;;;;;;;;5019939;28;20042;-80
2022/12/15 14:02:27;;;;;;;25.23;11.75;;;;;;;;;;5019432;28;20041;-81
2022/12/15 14:05:20;;;;;;;23.55;10.38;;;;;;;;;;5012667;28;20041;-80
2022/12/15 14:07:49;;;;;;;32.03;12.05;;;;;;;;;;5012073;28;20411;-80
2022/12/15 14:10:33;;;;;;;30.50;12.82;;;;;;;;;;5023566;28;20037;-80
2022/12/15 14:13:05;;;;;;;26.77;10.82;;;;;;;;;;5040943;28;20112;-81
2022/12/15 14:15:32;;;;;;;32.25;12.13;;;;;;;;;;5031132;28;20260;-80
2022/12/15 14:18:00;;;;;;;24.42;10.52;;;;;;;;;;5019691;28;20649;-81
2022/12/15 14:20:30;;;;;;;33.60;13.63;;;;;;;;;;5024372;28;20037;-80
2022/12/15 14:22:56;;;;;;;30.33;12.35;;;;;;;;;;5011189;28;20037;-80
2022/12/15 14:25:25;;;;;;;28.65;13.10;;;;;;;;;;5008263;28;20038;-79
2022/12/15 14:27:50;;;;;;;28.95;12.02;;;;;;;;;;5010993;28;20111;-79
2022/12/15 14:30:32;;;;;;;35.33;14.38;;;;;;;;;;5019790;28;20068;-80
2022/12/15 14:33:14;;;;;;;22.23;11.13;;;;;;;;;;5011782;28;20048;-80
2022/12/15 14:35:43;;;;;;;26.77;11.35;;;;;;;;;;5013207;28;20056;-80
2022/12/15 14:38:19;;;;;;;22.63;9.13;;;;;;;;;;5015509;28;20036;-80
2022/12/15 14:40:48;;;;;;;36.00;11.15;;;;;;;;;;5023188;28;20045;-81
2022/12/15 14:43:25;;;;;;;19.83;8.60;;;;;;;;;;5026820;28;20113;-81
2022/12/15 14:46:14;;;;;;;26.42;10.55;;;;;;;;;;5026984;28;20351;-80
2022/12/15 14:48:48;;;;;;;28.67;11.27;;;;;;;;;;5031903;28;20504;-80
2022/12/15 14:51:13;;;;;;;24.60;11.80;;;;;;;;;;5027923;28;20029;-80
2022/12/15 14:53:41;;;;;;;26.75;11.13;;;;;;;;;;5023702;28;20037;-81
2022/12/15 14:56:21;;;;;;;31.80;14.25;;;;;;;;;;5018172;28;20064;-81
2022/12/15 14:58:54;;;;;;;28.00;13.20;;;;;;;;;;5044758;28;20049;-81
2022/12/15 15:01:26;;;;;;;34.50;13.52;;;;;;;;;;5044349;28;20575;-81
2022/12/15 15:04:22;;;;;;;22.83;10.05;;;;;;;;;;5028568;28;20118;-81
2022/12/15 15:06:53;;;;;;;23.17;9.50;;;;;;;;;;5017714;28;20045;-81
2022/12/15 15:09:29;;;;;;;25.38;9.45;;;;;;;;;;5025947;28;20025;-81
2022/12/15 15:12:07;;;;;;;24.20;9.55;;;;;;;;;;5020934;28;20104;-81
2022/12/15 15:14:59;;;;;;;32.13;12.48;;;;;;;;;;5014165;28;20100;-79
2022/12/15 15:17:43;;;;;;;28.52;11.57;;;;;;;;;;5014267;28;20100;-79
2022/12/15 15:20:28;;;;;;;20.55;10.57;;;;;;;;;;5017274;28;20045;-80
2022/12/15 15:23:16;;;;;;;25.33;10.20;;;;;;;;;;5010171;28;20067;-78
2022/12/15 15:25:48;;;;;;;27.80;11.63;;;;;;;;;;5004424;28;20119;-79
2022/12/15 15:28:17;;;;;;;23.50;9.93;;;;;;;;;;5012101;28;20042;-79
2022/12/15 15:30:43;;;;;;;19.45;8.77;;;;;;;;;;5010141;28;20030;-79
2022/12/15 15:33:09;;;;;;;24.70;10.38;;;;;;;;;;5031474;28;20037;-79
2022/12/15 15:35:35;;;;;;;31.73;11.60;;;;;;;;;;5015343;28;20103;-79
2022/12/15 15:38:13;;;;;;;23.00;9.65;;;;;;;;;;5036778;28;20030;-79
2022/12/15 15:40:38;;;;;;;24.95;10.73;;;;;;;;;;5016420;28;20128;-79
2022/12/15 15:43:10;;;;;;;23.13;8.82;;;;;;;;;;5012985;28;20128;-79
2022/12/15 15:45:36;;;;;;;27.75;10.70;;;;;;;;;;5015071;28;20491;-79
2022/12/15 15:48:02;;;;;;;22.55;9.75;;;;;;;;;;5027258;28;20048;-79
2022/12/15 15:50:28;;;;;;;19.88;10.55;;;;;;;;;;5019563;28;20525;-79
2022/12/15 15:52:54;;;;;;;23.83;11.52;;;;;;;;;;5016762;28;20040;-80
2022/12/15 15:55:26;;;;;;;25.15;10.38;;;;;;;;;;5030759;28;20470;-78
2022/12/15 15:57:51;;;;;;;38.47;15.27;;;;;;;;;;5009374;28;20092;-78
2022/12/15 16:00:20;;;;;;;30.77;13.65;;;;;;;;;;5021490;28;20013;-78
2022/12/15 16:02:45;;;;;;;33.03;14.52;;;;;;;;;;5035507;28;20137;-78
2022/12/15 16:05:12;;;;;;;28.92;11.88;;;;;;;;;;5019921;28;20185;-78
2022/12/15 16:07:37;;;;;;;33.45;12.63;;;;;;;;;;5020705;28;20037;-78
2022/12/15 16:10:05;;;;;;;24.27;11.57;;;;;;;;;;5015529;28;20038;-79
2022/12/15 16:12:38;;;;;;;25.30;10.73;;;;;;;;;;5017666;28;20029;-78
2022/12/15 16:15:30;;;;;;;28.13;10.55;;;;;;;;;;5022938;28;20065;-78
2022/12/15 16:17:57;;;;;;;19.85;8.70;;;;;;;;;;5005184;28;20718;-78
2022/12/15 16:20:26;;;;;;;20.60;9.25;;;;;;;;;;5014540;28;20529;-78
2022/12/15 16:23:03;;;;;;;18.98;8.60;;;;;;;;;;5019113;28;20406;-78
2022/12/15 16:25:36;;;;;;;21.52;8.40;;;;;;;;;;5021957;28;20411;-78
2022/12/15 16:28:02;;;;;;;20.40;9.77;;;;;;;;;;5026658;28;20568;-80
2022/12/15 16:30:28;;;;;;;21.08;9.10;;;;;;;;;;5023266;28;20036;-81
2022/12/15 16:32:54;;;;;;;21.70;8.90;;;;;;;;;;5026494;28;20037;-81
2022/12/15 16:35:23;;;;;;;25.10;9.68;;;;;;;;;;5012593;28;20037;-81
2022/12/15 16:37:49;;;;;;;23.92;10.23;;;;;;;;;;5010667;28;20507;-82
2022/12/15 16:40:28;;;;;;;21.80;10.15;;;;;;;;;;5036968;28;20045;-84
2022/12/15 16:42:57;;;;;;;24.55;12.65;;;;;;;;;;5025474;28;20403;-84
2022/12/15 16:45:24;;;;;;;23.88;11.27;;;;;;;;;;5019530;28;20068;-77
2022/12/15 16:47:50;;;;;;;23.92;11.80;;;;;;;;;;5021938;28;20037;-83
2022/12/15 16:50:21;;;;;;;25.38;10.73;;;;;;;;;;5042570;28;20041;-83
2022/12/15 16:52:48;;;;;;;27.77;10.75;;;;;;;;;;5025649;28;20033;-83
2022/12/15 16:55:21;;;;;;;26.27;12.40;;;;;;;;;;5026501;28;20038;-83
2022/12/15 16:57:47;;;;;;;34.92;15.18;;;;;;;;;;5026038;28;20098;-83
2022/12/15 17:00:18;;;;;;;33.38;14.38;;;;;;;;;;5025419;28;20042;-83
2022/12/15 17:02:44;;;;;;;35.63;14.00;;;;;;;;;;5022301;28;20042;-87
2022/12/15 17:05:09;;;;;;;32.10;14.23;;;;;;;;;;5019215;28;20064;-83
2022/12/15 17:07:35;;;;;;;30.42;12.20;;;;;;;;;;5013665;28;20087;-83
2022/12/15 17:10:01;;;;;;;32.85;13.90;;;;;;;;;;5005169;28;20052;-83
2022/12/15 17:12:26;;;;;;;25.70;11.82;;;;;;;;;;5029310;28;20051;-78